createdAt,value
2018-12-17T00:00:48.940Z,53.95
2018-12-17T00:03:18.075Z,53.08
2018-12-17T00:05:51.936Z,53.63
2018-12-17T00:08:20.408Z,54.13
2018-12-17T00:10:51.164Z,57.37
2018-12-17T00:13:19.922Z,56.07
2018-12-17T00:15:54.827Z,54.47
2018-12-17T00:18:30.724Z,54.50
2018-12-17T00:21:01.570Z,51.83
2018-12-17T00:23:49.442Z,53.85
2018-12-17T00:26:36.173Z,53.13
2018-12-17T00:29:05.537Z,52.05
2018-12-17T00:31:54.938Z,53.68
2018-12-17T00:34:28.028Z,57.98
2018-12-17T00:36:57.896Z,57.00
2018-12-17T00:39:26.383Z,56.68
2018-12-17T00:41:57.159Z,55.08
2018-12-17T00:44:27.497Z,53.68
2018-12-17T00:47:12.694Z,58.48
2018-12-17T00:49:44.583Z,52.38
2018-12-17T00:55:07.727Z,54.18
2018-12-17T00:57:36.422Z,59.50
2018-12-17T01:00:07.578Z,57.10
2018-12-17T01:02:40.633Z,56.00
2018-12-17T01:05:09.114Z,56.10
2018-12-17T01:07:38.217Z,55.35
2018-12-17T01:10:07.763Z,56.02
2018-12-17T01:12:55.468Z,55.08
2018-12-17T01:15:23.990Z,56.98
2018-12-17T01:18:01.694Z,55.10
2018-12-17T01:20:30.160Z,61.73
2018-12-17T01:22:58.579Z,55.03
2018-12-17T01:25:27.775Z,57.50
2018-12-17T01:27:57.427Z,55.92
2018-12-17T01:30:31.177Z,61.35
2018-12-17T01:33:01.363Z,53.90
2018-12-17T01:38:26.047Z,58.73
2018-12-17T01:40:56.150Z,56.95
2018-12-17T01:43:24.831Z,55.75
2018-12-17T01:45:53.304Z,54.48
2018-12-17T01:48:21.731Z,53.17
2018-12-17T01:50:50.325Z,53.58
2018-12-17T01:53:19.086Z,57.13
2018-12-17T01:55:47.601Z,52.70
2018-12-17T01:58:16.775Z,49.55
2018-12-17T02:00:45.278Z,53.17
2018-12-17T02:03:19.068Z,49.53
2018-12-17T02:05:48.200Z,55.48
2018-12-17T02:08:17.353Z,48.48
2018-12-17T02:10:46.246Z,52.23
2018-12-17T02:13:19.867Z,56.85
2018-12-17T02:15:48.366Z,49.83
2018-12-17T02:18:18.733Z,49.73
2018-12-17T02:20:48.494Z,45.12
2018-12-17T02:23:18.186Z,42.67
2018-12-17T02:25:51.875Z,47.75
2018-12-17T02:28:35.962Z,42.45
2018-12-17T02:31:02.382Z,41.73
2018-12-17T02:33:31.624Z,40.55
2018-12-17T02:36:00.654Z,41.37
2018-12-17T02:38:29.404Z,41.85
2018-12-17T02:40:58.661Z,43.35
2018-12-17T02:46:24.280Z,44.85
2018-12-17T02:48:52.806Z,39.30
2018-12-17T02:51:25.604Z,42.67
2018-12-17T02:53:58.725Z,40.40
2018-12-17T02:56:30.514Z,41.35
2018-12-17T02:58:59.031Z,43.25
2018-12-17T03:01:31.416Z,39.08
2018-12-17T03:04:13.454Z,42.15
2018-12-17T03:06:53.292Z,41.13
2018-12-17T03:09:34.460Z,41.85
2018-12-17T03:12:09.775Z,39.78
2018-12-17T03:14:38.480Z,38.40
2018-12-17T03:17:06.920Z,40.00
2018-12-17T03:19:53.544Z,41.05
2018-12-17T03:22:24.806Z,42.15
2018-12-17T03:24:58.727Z,40.30
2018-12-17T03:27:32.928Z,36.55
2018-12-17T03:30:04.377Z,36.85
2018-12-17T03:32:40.377Z,38.95
2018-12-17T03:35:08.846Z,45.10
2018-12-17T03:37:43.030Z,52.05
2018-12-17T03:43:05.505Z,50.12
2018-12-17T03:45:34.767Z,47.93
2018-12-17T03:48:03.206Z,47.60
2018-12-17T03:50:31.643Z,52.73
2018-12-17T03:53:00.149Z,51.60
2018-12-17T03:55:33.969Z,51.50
2018-12-17T03:58:02.456Z,48.42
2018-12-17T04:00:32.812Z,45.17
2018-12-17T04:03:06.716Z,37.48
2018-12-17T04:05:52.454Z,32.42
2018-12-17T04:08:20.959Z,34.18
2018-12-17T04:10:49.662Z,35.83
2018-12-17T04:13:18.103Z,33.63
2018-12-17T04:15:46.825Z,34.48
2018-12-17T04:18:16.487Z,35.65
2018-12-17T04:20:44.994Z,34.67
2018-12-17T04:23:13.509Z,35.15
2018-12-17T04:25:47.331Z,33.28
2018-12-17T04:28:21.302Z,32.53
2018-12-17T04:30:54.979Z,32.65
2018-12-17T04:33:26.277Z,32.93
2018-12-17T04:35:54.939Z,31.70
2018-12-17T04:38:23.549Z,32.88
2018-12-17T04:40:52.039Z,29.63
2018-12-17T04:43:22.566Z,33.00
2018-12-17T04:45:55.918Z,30.57
2018-12-17T04:48:24.648Z,29.00
2018-12-17T04:50:58.499Z,30.60
2018-12-17T04:53:27.683Z,33.28
2018-12-17T04:55:56.128Z,33.92
2018-12-17T04:58:28.036Z,33.30
2018-12-17T05:01:01.811Z,32.25
2018-12-17T05:03:37.041Z,32.25
2018-12-17T05:06:05.427Z,29.75
2018-12-17T05:12:03.153Z,32.55
2018-12-17T05:14:40.290Z,31.23
2018-12-17T05:17:10.176Z,78.65
2018-12-17T05:19:39.670Z,39.08
2018-12-17T05:22:18.929Z,31.50
2018-12-17T05:24:50.409Z,32.33
2018-12-17T05:27:41.624Z,32.48
2018-12-17T05:30:28.718Z,31.20
2018-12-17T05:32:57.527Z,29.00
2018-12-17T05:35:26.887Z,32.38
2018-12-17T05:38:00.723Z,31.30
2018-12-17T05:40:30.681Z,29.65
2018-12-17T05:43:04.472Z,35.48
2018-12-17T05:45:33.701Z,29.42
2018-12-17T05:48:04.912Z,32.48
2018-12-17T05:50:35.264Z,28.40
2018-12-17T05:53:03.720Z,28.07
2018-12-17T05:58:28.288Z,31.85
2018-12-17T06:00:57.358Z,30.23
2018-12-17T06:03:44.052Z,30.68
2018-12-17T06:06:12.540Z,29.37
2018-12-17T06:08:41.244Z,29.77
2018-12-17T06:11:10.156Z,32.78
2018-12-17T06:13:38.623Z,28.38
2018-12-17T06:16:13.264Z,28.50
2018-12-17T06:18:41.863Z,29.52
2018-12-17T06:21:16.989Z,32.58
2018-12-17T06:23:49.635Z,29.20
2018-12-17T06:26:18.581Z,30.80
2018-12-17T06:28:48.604Z,32.70
2018-12-17T06:31:22.399Z,29.12
2018-12-17T06:33:52.571Z,30.82
2018-12-17T06:36:43.506Z,30.17
2018-12-17T06:39:12.704Z,30.72
2018-12-17T06:41:41.159Z,32.17
2018-12-17T06:44:09.620Z,30.45
2018-12-17T06:46:45.723Z,32.63
2018-12-17T06:49:15.053Z,33.28
2018-12-17T06:51:45.217Z,31.25
2018-12-17T06:54:14.927Z,56.55
2018-12-17T06:56:43.412Z,47.90
2018-12-17T06:59:11.827Z,44.75
2018-12-17T07:01:40.712Z,39.25
2018-12-17T07:04:09.213Z,34.63
2018-12-17T07:06:38.405Z,37.47
2018-12-17T07:09:07.865Z,33.03
2018-12-17T07:11:36.387Z,29.07
2018-12-17T07:14:05.082Z,30.73
2018-12-17T07:16:35.149Z,32.40
2018-12-17T07:19:07.739Z,32.30
2018-12-17T07:21:37.943Z,29.93
2018-12-17T07:24:08.472Z,30.60
2018-12-17T07:26:38.224Z,31.73
2018-12-17T07:29:07.392Z,31.17
2018-12-17T07:31:58.389Z,31.87
2018-12-17T07:34:27.692Z,34.10
2018-12-17T07:36:56.998Z,36.10
2018-12-17T07:39:29.352Z,34.33
2018-12-17T07:44:52.480Z,39.43
2018-12-17T07:47:20.939Z,40.48
2018-12-17T07:49:49.389Z,42.53
2018-12-17T07:52:18.321Z,38.48
2018-12-17T07:54:47.947Z,41.03
2018-12-17T07:57:21.855Z,41.13
2018-12-17T08:02:59.891Z,47.33
2018-12-17T08:05:28.394Z,52.70
2018-12-17T08:08:00.422Z,72.17
2018-12-17T08:10:28.830Z,58.33
2018-12-17T08:13:04.796Z,57.37
2018-12-17T08:15:40.372Z,52.30
2018-12-17T08:18:20.483Z,58.20
2018-12-17T08:20:49.788Z,62.80
2018-12-17T08:23:18.489Z,54.57
2018-12-17T08:25:46.963Z,49.63
2018-12-17T08:28:15.428Z,49.83
2018-12-17T08:30:43.858Z,45.93
2018-12-17T08:33:12.610Z,46.60
2018-12-17T08:35:42.777Z,52.83
2018-12-17T08:38:11.296Z,43.70
2018-12-17T08:40:39.787Z,44.97
2018-12-17T08:43:08.242Z,41.30
2018-12-17T08:45:36.687Z,45.13
2018-12-17T08:48:05.202Z,48.90
2018-12-17T08:50:33.642Z,44.47
2018-12-17T08:53:02.085Z,46.20
2018-12-17T08:55:30.749Z,48.63
2018-12-17T08:57:59.428Z,47.93
2018-12-17T09:00:27.877Z,44.20
2018-12-17T09:02:56.331Z,44.07
2018-12-17T09:05:27.755Z,47.30
2018-12-17T09:07:56.255Z,47.30
2018-12-17T09:10:24.755Z,44.00
2018-12-17T09:12:53.176Z,42.43
2018-12-17T09:15:21.717Z,40.90
2018-12-17T09:17:50.415Z,44.37
2018-12-17T09:20:18.915Z,39.90
2018-12-17T09:22:47.359Z,39.13
2018-12-17T09:25:15.901Z,38.60
2018-12-17T09:27:44.336Z,38.30
2018-12-17T09:30:18.321Z,39.13
2018-12-17T09:32:43.260Z,42.30
2018-12-17T09:35:11.746Z,36.43
2018-12-17T09:37:40.224Z,37.17
2018-12-17T09:40:08.775Z,39.87
2018-12-17T09:42:37.228Z,40.47
2018-12-17T09:45:06.866Z,36.63
2018-12-17T09:47:35.330Z,35.00
2018-12-17T09:50:05.082Z,35.43
2018-12-17T09:52:33.613Z,41.67
2018-12-17T09:55:02.457Z,38.97
2018-12-17T09:57:31.358Z,37.70
2018-12-17T10:00:00.227Z,36.40
2018-12-17T10:02:29.145Z,41.77
2018-12-17T10:04:57.861Z,40.10
2018-12-17T10:07:30.473Z,40.33
2018-12-17T10:09:56.915Z,36.10
2018-12-17T10:12:25.344Z,40.97
2018-12-17T10:14:53.830Z,41.10
2018-12-17T10:17:22.341Z,32.97
2018-12-17T10:19:50.852Z,29.63
2018-12-17T10:22:19.374Z,34.47
2018-12-17T10:24:47.797Z,38.37
2018-12-17T10:27:16.499Z,35.00
2018-12-17T10:29:45.135Z,31.63
2018-12-17T10:32:13.554Z,30.03
2018-12-17T10:34:42.154Z,40.07
2018-12-17T10:37:11.385Z,34.40
2018-12-17T10:39:39.828Z,41.10
2018-12-17T10:42:08.281Z,43.57
2018-12-17T10:44:36.737Z,43.00
2018-12-17T10:47:05.222Z,37.70
2018-12-17T10:49:33.700Z,34.77
2018-12-17T10:52:02.163Z,38.03
2018-12-17T10:54:31.311Z,32.97
2018-12-17T10:56:59.987Z,39.37
2018-12-17T10:59:28.505Z,41.03
2018-12-17T11:02:03.832Z,38.43
2018-12-17T11:04:34.350Z,42.60
2018-12-17T11:07:02.934Z,37.30
2018-12-17T11:09:31.341Z,44.53
2018-12-17T11:11:59.780Z,39.40
2018-12-17T11:14:28.224Z,43.73
2018-12-17T11:16:56.652Z,43.90
2018-12-17T11:19:25.142Z,41.13
2018-12-17T11:21:53.589Z,39.10
2018-12-17T11:24:22.048Z,44.10
2018-12-17T11:26:50.461Z,33.20
2018-12-17T11:29:18.903Z,33.83
2018-12-17T11:31:47.349Z,40.73
2018-12-17T11:34:15.827Z,39.33
2018-12-17T11:36:44.256Z,40.60
2018-12-17T11:39:12.684Z,34.83
2018-12-17T11:41:41.166Z,40.03
2018-12-17T11:44:09.612Z,39.97
2018-12-17T11:46:38.047Z,35.23
2018-12-17T11:49:06.530Z,49.30
2018-12-17T11:51:34.980Z,47.07
2018-12-17T11:54:03.419Z,39.47
2018-12-17T11:56:49.636Z,43.80
2018-12-17T11:59:18.064Z,42.57
2018-12-17T12:01:46.883Z,42.17
2018-12-17T12:04:15.356Z,47.77
2018-12-17T12:06:43.791Z,42.80
2018-12-17T12:09:14.249Z,40.97
2018-12-17T12:11:42.758Z,46.23
2018-12-17T12:14:11.207Z,47.53
2018-12-17T12:16:39.620Z,44.73
2018-12-17T12:19:08.098Z,41.70
2018-12-17T12:21:36.542Z,42.17
2018-12-17T12:24:05.004Z,35.43
2018-12-17T12:26:33.508Z,35.60
2018-12-17T12:29:01.973Z,39.30
2018-12-17T12:31:30.404Z,36.90
2018-12-17T12:33:58.857Z,33.33
2018-12-17T12:36:27.308Z,36.47
2018-12-17T12:38:55.728Z,39.20
2018-12-17T12:41:24.180Z,32.53
2018-12-17T12:43:52.626Z,39.63
2018-12-17T12:46:21.070Z,43.67
2018-12-17T12:48:49.544Z,42.50
2018-12-17T12:51:18.052Z,47.53
2018-12-17T12:53:46.480Z,41.53
2018-12-17T12:56:15.043Z,42.53
2018-12-17T12:58:43.464Z,33.03
2018-12-17T13:01:11.892Z,34.10
2018-12-17T13:03:40.360Z,41.40
2018-12-17T13:06:08.793Z,38.20
2018-12-17T13:08:37.376Z,41.27
2018-12-17T13:11:05.859Z,38.97
2018-12-17T13:13:34.324Z,38.20
2018-12-17T13:16:02.752Z,41.87
2018-12-17T13:18:31.232Z,37.97
2018-12-17T13:20:59.666Z,36.60
2018-12-17T13:23:28.136Z,41.63
2018-12-17T13:25:57.559Z,40.80
2018-12-17T13:28:25.991Z,42.43
2018-12-17T13:30:54.420Z,39.40
2018-12-17T13:33:22.921Z,40.50
2018-12-17T13:35:51.372Z,36.93
2018-12-17T13:38:19.842Z,37.00
2018-12-17T13:40:48.284Z,36.67
2018-12-17T13:43:16.728Z,39.93
2018-12-17T13:45:45.187Z,36.77
2018-12-17T13:48:14.169Z,37.17
2018-12-17T13:50:42.716Z,36.40
2018-12-17T13:53:16.644Z,33.87
2018-12-17T13:55:45.100Z,36.70
2018-12-17T13:58:13.524Z,40.73
2018-12-17T14:00:42.011Z,39.03
2018-12-17T14:03:10.464Z,37.30
2018-12-17T14:05:39.552Z,34.90
2018-12-17T14:08:08.016Z,36.57
2018-12-17T14:10:42.208Z,43.07
2018-12-17T14:13:10.700Z,39.97
2018-12-17T14:15:44.713Z,40.37
2018-12-17T14:18:18.785Z,35.67
2018-12-17T14:20:52.844Z,36.17
2018-12-17T14:23:21.321Z,41.07
2018-12-17T14:25:49.756Z,38.70
2018-12-17T14:28:18.349Z,37.40
2018-12-17T14:30:46.813Z,35.90
2018-12-17T14:33:15.245Z,32.37
2018-12-17T14:35:49.164Z,41.83
2018-12-17T14:38:17.601Z,38.73
2018-12-17T14:40:46.024Z,40.07
2018-12-17T14:43:14.507Z,40.53
2018-12-17T14:45:42.948Z,39.00
2018-12-17T14:48:11.433Z,39.03
2018-12-17T14:50:40.021Z,36.20
2018-12-17T14:53:08.480Z,42.07
2018-12-17T14:55:36.989Z,39.87
2018-12-17T14:58:05.627Z,36.03
2018-12-17T15:00:34.055Z,39.17
2018-12-17T15:03:02.504Z,37.67
2018-12-17T15:05:31.812Z,43.70
2018-12-17T15:08:00.332Z,47.17
2018-12-17T15:10:28.789Z,41.63
2018-12-17T15:12:57.244Z,40.23
2018-12-17T15:15:25.689Z,37.03
2018-12-17T15:17:54.148Z,38.73
2018-12-17T15:20:22.645Z,47.07
2018-12-17T15:22:51.093Z,44.87
2018-12-17T15:25:19.552Z,44.60
2018-12-17T15:27:48.063Z,55.47
2018-12-17T15:30:16.520Z,42.70
2018-12-17T15:32:44.940Z,36.63
2018-12-17T15:35:13.398Z,40.63
2018-12-17T15:37:41.859Z,38.40
2018-12-17T15:40:10.324Z,39.67
2018-12-17T15:42:41.001Z,48.57
2018-12-17T15:45:09.288Z,46.77
2018-12-17T15:47:37.746Z,49.00
2018-12-17T15:50:06.472Z,47.63
2018-12-17T15:52:34.940Z,43.63
2018-12-17T15:55:03.794Z,47.63
2018-12-17T15:57:32.329Z,46.10
2018-12-17T16:00:00.891Z,48.87
2018-12-17T16:02:29.734Z,44.70
2018-12-17T16:04:58.251Z,42.70
2018-12-17T16:07:27.367Z,49.07
2018-12-17T16:09:55.888Z,43.13
2018-12-17T16:12:24.412Z,51.50
2018-12-17T16:14:52.877Z,55.47
2018-12-17T16:17:21.411Z,56.83
2018-12-17T16:19:49.925Z,57.53
2018-12-17T16:22:18.527Z,59.53
2018-12-17T16:24:48.440Z,48.77
2018-12-17T16:27:19.408Z,53.00
2018-12-17T16:29:51.705Z,53.47
2018-12-17T16:32:20.246Z,47.37
2018-12-17T16:34:48.801Z,57.67
2018-12-17T16:37:18.444Z,56.03
2018-12-17T16:39:47.028Z,51.30
2018-12-17T16:42:15.899Z,54.73
2018-12-17T16:44:44.696Z,56.70
2018-12-17T16:47:13.203Z,58.73
2018-12-17T16:49:42.009Z,50.30
2018-12-17T16:52:10.541Z,58.43
2018-12-17T16:54:40.122Z,51.13
2018-12-17T16:57:09.247Z,49.67
2018-12-17T16:59:37.825Z,48.20
2018-12-17T17:02:06.454Z,47.17
2018-12-17T17:04:35.062Z,52.37
2018-12-17T17:07:03.636Z,49.40
2018-12-17T17:09:32.515Z,48.60
2018-12-17T17:12:01.153Z,57.07
2018-12-17T17:14:29.763Z,47.83
2018-12-17T17:16:58.376Z,55.67
2018-12-17T17:19:26.938Z,54.13
2018-12-17T17:21:55.487Z,54.13
2018-12-17T17:24:24.105Z,54.30
2018-12-17T17:26:53.281Z,51.60
2018-12-17T17:29:21.796Z,57.50
2018-12-17T17:31:50.360Z,57.33
2018-12-17T17:34:19.008Z,62.40
2018-12-17T17:36:47.594Z,55.10
2018-12-17T17:39:16.131Z,52.90
2018-12-17T17:41:44.886Z,54.83
2018-12-17T17:44:13.448Z,51.60
2018-12-17T17:46:41.986Z,55.87
2018-12-17T17:49:10.588Z,55.93
2018-12-17T17:51:39.173Z,67.97
2018-12-17T17:54:07.732Z,70.63
2018-12-17T17:56:36.277Z,79.43
2018-12-17T17:59:05.410Z,57.57
2018-12-17T18:01:33.997Z,59.83
2018-12-17T18:04:03.062Z,57.67
2018-12-17T18:06:31.844Z,51.87
2018-12-17T18:09:00.436Z,55.53
2018-12-17T18:11:29.195Z,51.50
2018-12-17T18:13:57.750Z,51.30
2018-12-17T18:16:26.324Z,46.10
2018-12-17T18:18:54.884Z,54.67
2018-12-17T18:21:23.425Z,60.03
2018-12-17T18:23:52.133Z,61.70
2018-12-17T18:26:20.692Z,49.90
2018-12-17T18:28:49.329Z,54.47
2018-12-17T18:31:17.873Z,56.37
2018-12-17T18:33:46.423Z,55.33
2018-12-17T18:36:15.000Z,59.90
2018-12-17T18:38:43.707Z,59.17
2018-12-17T18:41:12.761Z,57.63
2018-12-17T18:43:42.771Z,68.10
2018-12-17T18:46:11.424Z,59.03
2018-12-17T18:48:40.178Z,58.53
2018-12-17T18:51:09.660Z,62.80
2018-12-17T18:53:38.284Z,61.23
2018-12-17T18:56:06.904Z,70.97
2018-12-17T18:58:35.734Z,89.13
2018-12-17T19:01:05.441Z,67.27
2018-12-17T19:03:35.068Z,63.10
2018-12-17T19:06:25.987Z,62.50
2018-12-17T19:08:57.492Z,60.77
2018-12-17T19:14:24.089Z,58.67
2018-12-17T19:16:52.712Z,52.20
2018-12-17T19:19:28.850Z,54.90
2018-12-17T19:24:52.777Z,67.13
2018-12-17T19:27:21.409Z,63.47
2018-12-17T19:32:46.886Z,56.70
2018-12-17T19:35:16.515Z,56.60
2018-12-17T19:38:05.626Z,57.97
2018-12-17T19:40:37.540Z,60.80
2018-12-17T19:43:07.246Z,59.83
2018-12-17T19:45:36.500Z,74.70
2018-12-17T19:48:05.598Z,94.33
2018-12-17T19:50:35.053Z,84.20
2018-12-17T19:53:04.167Z,88.77
2018-12-17T19:55:32.745Z,66.53
2018-12-17T19:58:01.419Z,325.67
2018-12-17T20:00:30.000Z,104.50
2018-12-17T20:03:13.750Z,84.63
2018-12-17T20:05:47.617Z,71.10
2018-12-17T20:08:18.835Z,71.63
2018-12-17T20:10:50.199Z,73.23
2018-12-17T20:13:22.626Z,71.00
2018-12-17T20:15:52.625Z,60.07
2018-12-17T20:18:22.167Z,59.27
2018-12-17T20:20:54.934Z,61.50
2018-12-17T20:23:35.435Z,69.07
2018-12-17T20:26:04.756Z,61.23
2018-12-17T20:28:35.151Z,68.33
2018-12-17T20:31:22.480Z,66.77
2018-12-17T20:33:51.771Z,64.73
2018-12-17T20:36:22.323Z,67.43
2018-12-17T20:38:56.770Z,59.73
2018-12-17T20:41:26.335Z,66.37
2018-12-17T20:43:55.890Z,58.13
2018-12-17T20:49:11.326Z,58.67
2018-12-17T20:51:40.917Z,66.33
2018-12-17T20:54:12.677Z,62.90
2018-12-17T20:56:43.631Z,61.93
2018-12-17T20:59:16.601Z,64.77
2018-12-17T21:02:03.878Z,63.17
2018-12-17T21:04:51.025Z,84.37
2018-12-17T21:07:22.861Z,91.33
2018-12-17T21:09:58.885Z,88.22
2018-12-17T21:12:29.831Z,85.22
2018-12-17T21:15:03.849Z,72.08
2018-12-17T21:17:49.741Z,77.67
2018-12-17T21:23:12.853Z,78.13
2018-12-17T21:25:41.427Z,74.17
2018-12-17T21:28:17.086Z,77.73
2018-12-17T21:30:48.906Z,80.23
2018-12-17T21:33:20.308Z,70.57
2018-12-17T21:35:51.201Z,70.13
2018-12-17T21:38:22.609Z,67.07
2018-12-17T21:40:52.886Z,74.30
2018-12-17T21:43:22.867Z,74.10
2018-12-17T21:46:11.673Z,75.83
2018-12-17T21:48:41.202Z,71.77
2018-12-17T21:51:10.069Z,72.07
2018-12-17T21:53:57.930Z,66.07
2018-12-17T21:56:32.505Z,62.30
2018-12-17T21:59:06.317Z,62.40
2018-12-17T22:01:42.804Z,76.33
2018-12-17T22:04:31.685Z,67.40
2018-12-17T22:07:00.509Z,68.70
2018-12-17T22:09:45.104Z,62.93
2018-12-17T22:12:14.865Z,61.97
2018-12-17T22:14:44.141Z,52.80
2018-12-17T22:17:17.957Z,56.37
2018-12-17T22:20:08.878Z,51.03
2018-12-17T22:22:42.724Z,57.20
2018-12-17T22:25:16.676Z,52.80
2018-12-17T22:27:50.485Z,54.40
2018-12-17T22:30:31.655Z,66.73
2018-12-17T22:33:00.117Z,60.33
2018-12-17T22:35:32.280Z,61.10
2018-12-17T22:38:06.087Z,62.30
2018-12-17T22:40:39.019Z,59.00
2018-12-17T22:43:12.880Z,57.93
2018-12-17T22:45:41.358Z,56.98
2018-12-17T22:48:28.946Z,60.48
2018-12-17T22:51:20.538Z,56.58
2018-12-17T22:53:53.895Z,58.07
2018-12-17T22:56:28.642Z,59.75
2018-12-17T22:58:57.565Z,62.53
2018-12-17T23:04:19.825Z,55.95
2018-12-17T23:06:54.259Z,58.33
2018-12-17T23:09:46.005Z,53.70
2018-12-17T23:12:32.803Z,55.87
2018-12-17T23:15:30.783Z,55.00
2018-12-17T23:18:10.304Z,48.90
2018-12-17T23:20:45.164Z,63.37
2018-12-17T23:23:16.331Z,58.83
2018-12-17T23:25:46.152Z,51.03
2018-12-17T23:28:17.097Z,51.47
2018-12-17T23:30:50.067Z,49.53
2018-12-17T23:33:19.602Z,48.53
2018-12-17T23:35:49.605Z,47.00
2018-12-17T23:41:12.233Z,47.05
2018-12-17T23:43:57.591Z,44.67
2018-12-17T23:46:26.598Z,50.38
2018-12-17T23:48:55.286Z,51.92
2018-12-17T23:51:23.751Z,45.97
2018-12-17T23:53:53.769Z,48.58
2018-12-17T23:59:16.055Z,49.13
